Time;durP1;ratioP1;P1;durP2;ratioP2;P2;SDS_P1;SDS_P2;PMS_P1;PMS_P2;Temp;Humidity;BMP_temperature;BMP_pressure;BME280_temperature;BME280_humidity;BME280_pressure;Samples;Min_cycle;Max_cycle;Signal;HPM_P1;HPM_P2
2023/07/12 00:01:49;;;;;;;0.30;0.30;;;20.40;99.90;;;;;;5093655;28;20097;-72
2023/07/12 00:04:15;;;;;;;0.20;0.20;;;20.40;99.90;;;;;;5092561;28;20047;-72
2023/07/12 00:06:41;;;;;;;0.20;0.20;;;20.40;99.90;;;;;;5093752;28;20036;-72
2023/07/12 00:09:12;;;;;;;0.30;0.30;;;20.40;99.90;;;;;;5093541;28;20044;-72
2023/07/12 00:11:37;;;;;;;0.20;0.20;;;20.40;99.90;;;;;;5094090;28;20066;-72
2023/07/12 00:14:03;;;;;;;0.23;0.23;;;20.40;99.90;;;;;;5093927;28;20496;-72
2023/07/12 00:16:38;;;;;;;0.20;0.20;;;20.40;99.90;;;;;;5093513;28;20063;-72
2023/07/12 00:19:04;;;;;;;0.20;0.20;;;20.40;99.90;;;;;;5093488;28;20414;-76
2023/07/12 00:21:30;;;;;;;;;;;20.40;99.90;;;;;;5093653;28;20070;-75
2023/07/12 00:23:58;;;;;;;0.20;0.20;;;20.40;99.90;;;;;;5093520;28;20399;-72
2023/07/12 00:26:26;;;;;;;0.20;0.20;;;20.50;99.90;;;;;;5093859;28;20070;-72
2023/07/12 00:28:53;;;;;;;0.20;0.20;;;20.50;99.90;;;;;;5093388;28;20468;-73
2023/07/12 00:31:18;;;;;;;0.25;0.25;;;20.50;99.90;;;;;;5093429;28;20051;-74
2023/07/12 00:33:44;;;;;;;0.30;0.30;;;20.50;99.90;;;;;;5093421;28;20480;-75
2023/07/12 00:36:17;;;;;;;0.30;0.30;;;20.50;99.90;;;;;;5093309;28;20063;-73
2023/07/12 00:38:43;;;;;;;0.20;0.20;;;20.50;99.90;;;;;;5093025;28;20035;-72
2023/07/12 00:41:38;;;;;;;0.20;0.20;;;20.40;99.90;;;;;;5093361;28;20044;-73
2023/07/12 00:44:23;;;;;;;0.20;0.20;;;20.40;99.90;;;;;;5020891;28;20092;-73
2023/07/12 00:46:52;;;;;;;0.20;0.20;;;20.30;99.90;;;;;;5092298;28;20353;-73
2023/07/12 00:49:18;;;;;;;0.30;0.30;;;20.30;99.90;;;;;;5093633;28;20044;-73
2023/07/12 00:51:52;;;;;;;0.20;0.20;;;20.30;99.90;;;;;;5093485;28;20526;-72
2023/07/12 00:54:20;;;;;;;0.40;0.40;;;20.20;99.90;;;;;;5094452;28;20032;-75
2023/07/12 00:56:46;;;;;;;0.20;0.20;;;20.30;99.90;;;;;;5096915;28;20040;-70
2023/07/12 00:59:26;;;;;;;0.30;0.30;;;20.30;99.90;;;;;;5096662;28;20039;-73
2023/07/12 01:01:58;;;;;;;0.20;0.20;;;20.20;99.90;;;;;;5097282;28;20032;-76
2023/07/12 01:04:32;;;;;;;0.32;0.32;;;20.20;99.90;;;;;;5095717;28;20090;-75
2023/07/12 01:06:58;;;;;;;0.20;0.20;;;20.10;99.90;;;;;;5096378;28;20032;-75
2023/07/12 01:09:26;;;;;;;0.20;0.20;;;20.20;99.90;;;;;;5096638;28;20118;-72
2023/07/12 01:11:53;;;;;;;0.30;0.30;;;20.10;99.90;;;;;;5096430;28;20305;-74
2023/07/12 01:14:19;;;;;;;0.60;0.60;;;20.10;99.90;;;;;;5096499;28;20050;-72
2023/07/12 01:16:50;;;;;;;0.20;0.20;;;20.10;99.90;;;;;;5096394;28;20048;-73
2023/07/12 01:19:15;;;;;;;0.20;0.20;;;20.00;99.90;;;;;;5096540;28;20349;-72
2023/07/12 01:21:47;;;;;;;0.30;0.30;;;20.00;99.90;;;;;;5096528;28;20042;-75
2023/07/12 01:24:13;;;;;;;0.30;0.30;;;20.00;99.90;;;;;;5096862;28;20036;-72
2023/07/12 01:26:41;;;;;;;;;;;20.00;99.90;;;;;;5096769;28;20032;-75
2023/07/12 01:29:08;;;;;;;0.20;0.20;;;20.00;99.90;;;;;;5096630;28;19920;-75
2023/07/12 01:31:35;;;;;;;0.30;0.30;;;19.90;99.90;;;;;;5096398;28;20101;-72
2023/07/12 01:34:00;;;;;;;;;;;19.90;99.90;;;;;;5096580;28;20046;-72
2023/07/12 01:36:28;;;;;;;0.20;0.20;;;19.80;99.90;;;;;;5095769;28;20422;-72
2023/07/12 01:38:56;;;;;;;0.30;0.30;;;19.80;99.90;;;;;;5095861;28;20046;-73
2023/07/12 01:41:22;;;;;;;0.40;0.40;;;19.80;99.90;;;;;;5095685;28;20109;-73
2023/07/12 01:43:48;;;;;;;0.20;0.20;;;19.70;99.90;;;;;;5096358;28;20405;-72
2023/07/12 01:46:14;;;;;;;0.30;0.30;;;19.70;99.90;;;;;;5095872;28;20036;-72
2023/07/12 01:48:40;;;;;;;0.22;0.22;;;19.70;99.90;;;;;;5095891;28;20108;-73
2023/07/12 01:51:06;;;;;;;0.30;0.30;;;19.70;99.90;;;;;;5095907;28;20380;-72
2023/07/12 01:53:34;;;;;;;0.20;0.20;;;19.60;99.90;;;;;;5095494;28;20278;-73
2023/07/12 01:56:00;;;;;;;0.20;0.20;;;19.60;99.90;;;;;;5095662;28;20122;-72
2023/07/12 01:58:26;;;;;;;0.22;0.22;;;19.50;99.90;;;;;;5095574;28;20044;-72
2023/07/12 02:00:52;;;;;;;0.40;0.40;;;19.50;99.90;;;;;;5095292;28;20237;-72
2023/07/12 02:03:18;;;;;;;0.30;0.30;;;19.40;99.90;;;;;;5095670;28;20082;-72
2023/07/12 02:05:43;;;;;;;0.30;0.30;;;19.40;99.90;;;;;;5093842;28;20040;-72
2023/07/12 02:08:10;;;;;;;0.20;0.20;;;19.40;99.90;;;;;;5095303;28;20097;-73
2023/07/12 02:10:36;;;;;;;0.20;0.20;;;19.40;99.90;;;;;;5095387;28;20036;-73
2023/07/12 02:13:02;;;;;;;0.20;0.20;;;19.30;99.90;;;;;;5095291;28;20047;-73
2023/07/12 02:15:28;;;;;;;0.80;0.40;;;19.30;99.90;;;;;;5095297;28;20044;-73
2023/07/12 02:17:54;;;;;;;0.20;0.20;;;19.30;99.90;;;;;;5095141;28;20468;-72
2023/07/12 02:20:20;;;;;;;0.30;0.30;;;19.30;99.90;;;;;;5095103;28;20770;-72
2023/07/12 02:22:47;;;;;;;0.30;0.30;;;19.20;99.90;;;;;;5094778;28;20504;-72
2023/07/12 02:25:13;;;;;;;0.28;0.28;;;19.20;99.90;;;;;;5095102;28;20048;-72
2023/07/12 02:27:40;;;;;;;0.22;0.22;;;19.20;99.90;;;;;;5095017;28;20044;-73
2023/07/12 02:30:12;;;;;;;0.20;0.20;;;19.10;99.90;;;;;;5095053;28;20051;-73
2023/07/12 02:32:38;;;;;;;0.20;0.20;;;19.10;99.90;;;;;;5095251;28;20044;-73
2023/07/12 02:35:04;;;;;;;0.20;0.20;;;19.10;99.90;;;;;;5094729;28;20047;-73
2023/07/12 02:37:30;;;;;;;0.22;0.22;;;18.90;99.90;;;;;;5094732;28;20044;-73
2023/07/12 02:39:55;;;;;;;0.40;0.40;;;18.90;99.90;;;;;;5094706;28;20051;-72
2023/07/12 02:42:21;;;;;;;0.30;0.30;;;18.90;99.90;;;;;;5095109;28;20032;-73
2023/07/12 02:44:47;;;;;;;0.20;0.20;;;18.80;99.90;;;;;;5094688;28;20076;-73
2023/07/12 02:47:12;;;;;;;0.30;0.30;;;18.80;99.90;;;;;;5094704;28;20040;-73
2023/07/12 02:49:39;;;;;;;0.30;0.30;;;18.70;99.90;;;;;;5094808;28;20035;-72
2023/07/12 02:52:07;;;;;;;0.30;0.30;;;18.70;99.90;;;;;;5093299;28;20040;-73
2023/07/12 02:54:33;;;;;;;0.38;0.32;;;18.70;99.90;;;;;;5095170;28;20050;-73
2023/07/12 02:56:59;;;;;;;0.35;0.35;;;18.70;99.90;;;;;;5094556;28;20051;-72
2023/07/12 02:59:25;;;;;;;0.30;0.30;;;18.70;99.90;;;;;;5094421;28;20127;-72
2023/07/12 03:01:52;;;;;;;0.30;0.30;;;18.60;99.90;;;;;;5094421;28;20144;-73
2023/07/12 03:04:17;;;;;;;0.30;0.30;;;18.70;99.90;;;;;;5094419;28;20040;-72
2023/07/12 03:06:44;;;;;;;0.60;0.60;;;18.70;99.90;;;;;;5094275;28;20540;-73
2023/07/12 03:09:09;;;;;;;0.20;0.20;;;18.70;99.90;;;;;;5094332;28;20044;-73
2023/07/12 03:11:35;;;;;;;0.20;0.20;;;18.70;99.90;;;;;;5094336;28;20040;-75
2023/07/12 03:14:01;;;;;;;0.20;0.20;;;18.70;99.90;;;;;;5094274;28;20484;-75
2023/07/12 03:16:27;;;;;;;0.30;0.30;;;18.70;99.90;;;;;;5093548;28;20101;-74
2023/07/12 03:18:53;;;;;;;0.30;0.30;;;18.70;99.90;;;;;;5093944;28;20371;-75
2023/07/12 03:21:19;;;;;;;0.30;0.30;;;18.70;99.90;;;;;;5092964;28;20054;-72
2023/07/12 03:23:45;;;;;;;0.30;0.30;;;18.70;99.90;;;;;;5094202;28;20037;-72
2023/07/12 03:26:11;;;;;;;0.30;0.30;;;18.70;99.90;;;;;;5094122;28;20085;-75
2023/07/12 03:28:37;;;;;;;0.30;0.30;;;18.60;99.90;;;;;;5094096;28;20044;-73
2023/07/12 03:31:09;;;;;;;0.30;0.30;;;18.60;99.90;;;;;;5093989;28;20040;-75
2023/07/12 03:33:35;;;;;;;0.40;0.40;;;18.60;99.90;;;;;;5094053;28;20036;-75
2023/07/12 03:36:04;;;;;;;0.25;0.25;;;18.60;99.90;;;;;;5093892;28;20136;-73
2023/07/12 03:38:31;;;;;;;0.20;0.20;;;18.60;99.90;;;;;;5094244;28;20165;-76
2023/07/12 03:40:59;;;;;;;0.30;0.30;;;18.60;99.90;;;;;;5093965;28;20051;-72
2023/07/12 03:43:25;;;;;;;0.28;0.28;;;18.60;99.90;;;;;;5093579;28;20416;-74
2023/07/12 03:45:52;;;;;;;0.30;0.30;;;18.60;99.90;;;;;;5093857;28;20123;-75
2023/07/12 03:48:18;;;;;;;0.30;0.30;;;18.50;99.90;;;;;;5093967;28;20052;-75
2023/07/12 03:50:46;;;;;;;0.30;0.30;;;18.50;99.90;;;;;;5093656;28;20036;-73
2023/07/12 03:53:12;;;;;;;0.30;0.30;;;18.50;99.90;;;;;;5093771;28;20040;-73
2023/07/12 03:55:42;;;;;;;0.30;0.30;;;18.40;99.90;;;;;;5094075;28;20050;-72
2023/07/12 03:58:11;;;;;;;0.30;0.30;;;18.40;99.90;;;;;;5093644;28;20119;-72
2023/07/12 04:00:43;;;;;;;0.52;0.52;;;18.40;99.90;;;;;;5093594;28;20044;-75
2023/07/12 04:03:10;;;;;;;0.32;0.32;;;18.30;99.90;;;;;;5093645;28;20040;-75
2023/07/12 04:05:37;;;;;;;0.20;0.20;;;18.30;99.90;;;;;;5093644;28;20040;-77
2023/07/12 04:08:03;;;;;;;0.35;0.35;;;18.20;99.90;;;;;;5093549;28;20464;-76
2023/07/12 04:10:29;;;;;;;0.47;0.40;;;18.20;99.90;;;;;;5093545;28;20047;-73
2023/07/12 04:12:55;;;;;;;0.67;0.67;;;18.20;99.90;;;;;;5093606;28;20047;-76
2023/07/12 04:15:20;;;;;;;0.40;0.40;;;18.10;99.90;;;;;;5093394;28;20635;-75
2023/07/12 04:17:46;;;;;;;0.40;0.40;;;18.10;99.90;;;;;;5093862;28;20048;-75
2023/07/12 04:20:12;;;;;;;0.63;0.63;;;18.00;99.90;;;;;;5093859;28;20032;-76
2023/07/12 04:22:38;;;;;;;0.30;0.30;;;18.00;99.90;;;;;;5093526;28;20043;-72
2023/07/12 04:25:05;;;;;;;0.30;0.30;;;18.00;99.90;;;;;;5093796;28;20040;-75
2023/07/12 04:27:31;;;;;;;;;;;17.90;99.90;;;;;;5093783;28;20270;-76
2023/07/12 04:29:56;;;;;;;0.30;0.30;;;18.00;99.90;;;;;;5097096;28;19919;-74
2023/07/12 04:32:22;;;;;;;0.30;0.30;;;18.00;99.90;;;;;;5097245;28;20028;-76
2023/07/12 04:34:48;;;;;;;0.50;0.50;;;18.00;99.90;;;;;;5097141;28;20036;-73
2023/07/12 04:37:13;;;;;;;0.40;0.40;;;18.00;99.90;;;;;;5097197;28;20036;-76
2023/07/12 04:39:39;;;;;;;0.33;0.33;;;18.00;99.90;;;;;;5097075;28;20368;-73
2023/07/12 04:42:05;;;;;;;0.30;0.30;;;18.00;99.90;;;;;;5097108;28;20046;-73
2023/07/12 04:44:31;;;;;;;0.30;0.30;;;18.00;99.90;;;;;;5097039;28;20046;-76
2023/07/12 04:46:57;;;;;;;0.30;0.30;;;17.90;99.90;;;;;;5096898;28;20048;-76
2023/07/12 04:49:22;;;;;;;0.60;0.53;;;17.90;99.90;;;;;;5096942;28;20036;-73
2023/07/12 04:51:49;;;;;;;0.30;0.30;;;17.90;99.90;;;;;;5096854;28;20040;-75
2023/07/12 04:54:14;;;;;;;;;;;17.90;99.90;;;;;;5097573;28;20051;-74
2023/07/12 04:56:40;;;;;;;0.30;0.30;;;17.90;99.90;;;;;;5096745;28;19916;-75
2023/07/12 04:59:06;;;;;;;0.63;0.50;;;17.90;99.90;;;;;;5096633;28;20036;-75
2023/07/12 05:01:32;;;;;;;0.40;0.40;;;17.90;99.90;;;;;;5096662;28;20044;-70
2023/07/12 05:03:58;;;;;;;0.33;0.30;;;17.90;99.90;;;;;;5096485;28;20042;-70
2023/07/12 05:06:24;;;;;;;;;;;17.90;99.90;;;;;;5097167;28;20372;-71
2023/07/12 05:08:51;;;;;;;0.68;0.30;;;17.90;99.90;;;;;;5096157;28;19916;-72
2023/07/12 05:11:16;;;;;;;;;;;17.90;99.90;;;;;;5096965;28;20050;-71
2023/07/12 05:13:42;;;;;;;0.60;0.45;;;17.90;99.90;;;;;;5096446;28;20003;-71
2023/07/12 05:16:11;;;;;;;0.70;0.70;;;17.90;99.90;;;;;;5096101;28;20490;-71
2023/07/12 05:18:36;;;;;;;0.30;0.30;;;17.90;99.90;;;;;;5096325;28;20051;-70
2023/07/12 05:21:02;;;;;;;0.37;0.37;;;17.90;99.90;;;;;;5096783;28;20044;-70
2023/07/12 05:23:28;;;;;;;0.57;0.57;;;17.90;99.90;;;;;;5096280;28;20036;-69
2023/07/12 05:25:57;;;;;;;0.60;0.60;;;17.90;99.90;;;;;;5096230;28;20123;-71
2023/07/12 05:28:23;;;;;;;0.30;0.30;;;17.90;99.90;;;;;;5095896;28;20483;-73
2023/07/12 05:30:48;;;;;;;0.30;0.30;;;17.90;99.90;;;;;;5096222;28;20036;-71
2023/07/12 05:33:15;;;;;;;0.30;0.30;;;18.00;99.90;;;;;;5096042;28;20464;-70
2023/07/12 05:35:40;;;;;;;0.47;0.35;;;18.00;99.90;;;;;;5095763;28;20123;-71
2023/07/12 05:38:07;;;;;;;0.53;0.53;;;18.20;99.90;;;;;;5095966;28;20091;-72
2023/07/12 05:40:34;;;;;;;0.30;0.30;;;18.30;99.90;;;;;;5095149;28;20044;-71
2023/07/12 05:43:00;;;;;;;0.30;0.30;;;18.40;99.90;;;;;;5095917;28;20043;-72
2023/07/12 05:45:26;;;;;;;0.40;0.40;;;18.50;99.90;;;;;;5095925;28;20097;-70
2023/07/12 05:47:52;;;;;;;0.37;0.37;;;18.60;99.90;;;;;;5095857;28;20039;-71
2023/07/12 05:50:19;;;;;;;0.30;0.30;;;18.50;99.90;;;;;;5095561;28;20414;-72
2023/07/12 05:52:46;;;;;;;0.40;0.40;;;18.40;99.90;;;;;;5095462;28;20284;-70
2023/07/12 05:55:17;;;;;;;0.43;0.43;;;18.40;99.90;;;;;;5095863;28;20032;-71
2023/07/12 05:57:43;;;;;;;0.30;0.30;;;18.30;99.90;;;;;;5095438;28;20149;-71
2023/07/12 06:00:10;;;;;;;0.30;0.30;;;18.30;99.90;;;;;;5095507;28;20422;-69
2023/07/12 06:02:37;;;;;;;0.73;0.40;;;18.30;99.90;;;;;;5095511;28;20061;-71
2023/07/12 06:05:03;;;;;;;;;;;18.40;99.90;;;;;;5095803;28;20047;-76
2023/07/12 06:07:29;;;;;;;0.20;0.20;;;18.50;99.90;;;;;;5095755;28;20006;-69
2023/07/12 06:09:54;;;;;;;0.40;0.40;;;18.60;99.90;;;;;;5094213;28;20512;-71
2023/07/12 06:12:20;;;;;;;1.10;0.57;;;18.60;99.90;;;;;;5095368;28;20127;-71
2023/07/12 06:14:46;;;;;;;0.70;0.70;;;18.60;99.90;;;;;;5095238;28;20084;-71
2023/07/12 06:17:11;;;;;;;0.30;0.30;;;18.60;99.90;;;;;;5094977;28;20055;-71
2023/07/12 06:19:37;;;;;;;0.47;0.47;;;18.60;99.90;;;;;;5094751;28;20039;-71
2023/07/12 06:22:03;;;;;;;0.50;0.40;;;18.50;99.90;;;;;;5094903;28;20139;-72
2023/07/12 06:24:28;;;;;;;0.77;0.60;;;18.60;99.90;;;;;;5093573;28;20123;-72
2023/07/12 06:26:54;;;;;;;7.80;0.93;;;18.60;99.90;;;;;;5094993;28;20468;-73
2023/07/12 06:29:20;;;;;;;0.30;0.30;;;18.70;99.90;;;;;;5095032;28;20040;-74
2023/07/12 06:31:45;;;;;;;0.37;0.37;;;18.70;99.90;;;;;;5094878;28;20036;-74
2023/07/12 06:34:11;;;;;;;1.03;0.80;;;18.90;99.90;;;;;;5094949;28;20036;-79
2023/07/12 06:36:37;;;;;;;0.30;0.30;;;18.90;99.90;;;;;;5094957;28;20123;-73
2023/07/12 06:39:03;;;;;;;0.30;0.30;;;19.00;99.90;;;;;;5094621;28;20036;-73
2023/07/12 06:41:29;;;;;;;0.30;0.30;;;19.00;99.90;;;;;;5094629;28;20085;-74
2023/07/12 06:43:55;;;;;;;2.55;0.45;;;19.00;99.90;;;;;;5094730;28;20435;-73
2023/07/12 06:46:22;;;;;;;0.35;0.35;;;19.00;99.90;;;;;;5094666;28;20080;-73
2023/07/12 06:48:48;;;;;;;0.35;0.35;;;18.90;99.90;;;;;;5093212;28;20093;-74
2023/07/12 06:51:14;;;;;;;0.45;0.45;;;19.00;99.90;;;;;;5094334;28;20422;-72
2023/07/12 06:53:39;;;;;;;0.40;0.40;;;19.00;99.90;;;;;;5094533;28;20048;-74
2023/07/12 06:56:05;;;;;;;0.40;0.40;;;19.10;99.90;;;;;;5094352;28;20040;-73
2023/07/12 06:58:31;;;;;;;0.40;0.40;;;19.10;99.90;;;;;;5094216;28;20036;-73
2023/07/12 07:00:57;;;;;;;0.30;0.30;;;19.10;99.90;;;;;;5093534;28;20122;-73
2023/07/12 07:03:22;;;;;;;0.50;0.50;;;19.10;99.90;;;;;;5094111;28;20051;-74
2023/07/12 07:05:48;;;;;;;0.30;0.30;;;19.20;99.90;;;;;;5094004;28;20040;-73
2023/07/12 07:08:17;;;;;;;0.67;0.67;;;19.40;99.90;;;;;;5094336;28;20040;-73
2023/07/12 07:10:47;;;;;;;3.60;1.25;;;19.50;99.90;;;;;;5093973;28;20040;-74
2023/07/12 07:13:13;;;;;;;1.00;0.90;;;19.50;99.90;;;;;;5094335;28;20380;-74
2023/07/12 07:15:38;;;;;;;0.50;0.43;;;19.60;99.90;;;;;;5093723;28;20032;-72
2023/07/12 07:18:04;;;;;;;0.37;0.37;;;19.60;99.90;;;;;;5094303;28;20117;-73
2023/07/12 07:20:29;;;;;;;0.50;0.43;;;19.50;99.90;;;;;;5094008;28;20035;-73
2023/07/12 07:22:56;;;;;;;0.30;0.30;;;19.40;99.90;;;;;;5093786;28;20051;-73
2023/07/12 07:25:22;;;;;;;0.50;0.50;;;19.40;99.90;;;;;;5093569;28;20044;-73
2023/07/12 07:27:48;;;;;;;0.20;0.20;;;19.40;99.90;;;;;;5093581;28;20035;-73
2023/07/12 07:30:14;;;;;;;0.57;0.40;;;19.50;99.90;;;;;;5093496;28;20487;-73
2023/07/12 07:32:40;;;;;;;0.63;0.63;;;19.50;99.90;;;;;;5093752;28;20089;-74
2023/07/12 07:35:06;;;;;;;0.53;0.40;;;19.40;99.90;;;;;;5093695;28;20086;-74
2023/07/12 07:37:32;;;;;;;0.30;0.30;;;19.50;99.90;;;;;;5093391;28;20464;-72
2023/07/12 07:39:58;;;;;;;0.47;0.47;;;19.40;99.90;;;;;;5093565;28;20036;-72
2023/07/12 07:42:24;;;;;;;1.37;1.03;;;19.40;99.90;;;;;;5093564;28;20028;-72
2023/07/12 07:44:50;;;;;;;0.30;0.30;;;19.40;99.90;;;;;;5093039;28;20039;-72
2023/07/12 07:47:15;;;;;;;1.00;0.55;;;19.40;99.90;;;;;;5093567;28;20469;-72
2023/07/12 07:49:41;;;;;;;0.30;0.30;;;19.40;99.90;;;;;;5093754;28;20032;-71
2023/07/12 07:52:07;;;;;;;0.30;0.30;;;19.50;99.90;;;;;;5093371;28;20119;-71
2023/07/12 07:54:33;;;;;;;0.40;0.40;;;19.70;99.90;;;;;;5093399;28;20479;-72
2023/07/12 07:56:59;;;;;;;0.50;0.30;;;19.90;99.90;;;;;;5093665;28;20032;-74
2023/07/12 07:59:24;;;;;;;0.40;0.40;;;20.00;99.90;;;;;;5093188;28;20061;-72
2023/07/12 08:01:50;;;;;;;0.23;0.23;;;20.10;99.90;;;;;;5093564;28;20086;-73
2023/07/12 08:04:15;;;;;;;0.20;0.20;;;20.20;99.90;;;;;;5096382;28;20462;-72
2023/07/12 08:06:41;;;;;;;0.40;0.40;;;20.30;99.90;;;;;;5097554;28;20040;-72
2023/07/12 08:09:07;;;;;;;0.40;0.40;;;20.50;99.90;;;;;;5097383;28;20040;-71
2023/07/12 08:11:33;;;;;;;0.38;0.38;;;20.60;99.90;;;;;;5097636;28;20388;-71
2023/07/12 08:13:59;;;;;;;0.30;0.30;;;20.70;99.90;;;;;;5097011;28;20032;-72
2023/07/12 08:16:29;;;;;;;0.30;0.30;;;20.90;99.90;;;;;;5097258;28;20075;-70
2023/07/12 08:18:55;;;;;;;1.85;0.50;;;21.10;99.90;;;;;;5097605;28;20066;-73
2023/07/12 08:21:21;;;;;;;;;;;21.30;99.90;;;;;;5097747;28;20044;-71
2023/07/12 08:23:47;;;;;;;0.30;0.30;;;21.40;99.90;;;;;;5097364;28;19923;-71
2023/07/12 08:26:14;;;;;;;0.47;0.40;;;21.50;99.90;;;;;;5097316;28;20051;-71
2023/07/12 08:28:40;;;;;;;0.85;0.50;;;21.50;99.90;;;;;;5096903;28;20101;-72
2023/07/12 08:31:05;;;;;;;0.50;0.50;;;21.50;99.90;;;;;;5097082;28;20412;-73
2023/07/12 08:33:31;;;;;;;0.30;0.30;;;21.20;99.90;;;;;;5096651;28;20042;-70
2023/07/12 08:35:57;;;;;;;0.77;0.57;;;21.10;99.90;;;;;;5096962;28;20165;-72
2023/07/12 08:38:22;;;;;;;0.63;0.50;;;21.10;99.90;;;;;;5096468;28;20123;-79
2023/07/12 08:40:50;;;;;;;0.30;0.30;;;21.00;99.90;;;;;;5095733;28;20032;-71
2023/07/12 08:43:19;;;;;;;0.60;0.60;;;21.20;99.90;;;;;;5096425;28;20048;-72
2023/07/12 08:45:48;;;;;;;0.40;0.40;;;21.30;99.90;;;;;;5096625;28;20051;-75
2023/07/12 08:48:22;;;;;;;0.35;0.35;;;21.30;99.90;;;;;;5096690;28;20472;-71
2023/07/12 08:50:49;;;;;;;0.25;0.25;;;21.30;99.90;;;;;;5096590;28;20471;-74
2023/07/12 08:53:27;;;;;;;0.30;0.30;;;21.20;99.90;;;;;;5096797;28;20085;-71
2023/07/12 08:55:54;;;;;;;0.32;0.32;;;21.20;99.90;;;;;;5096652;28;20418;-72
2023/07/12 08:58:44;;;;;;;0.45;0.38;;;21.10;99.90;;;;;;5096513;28;20036;-72
2023/07/12 09:01:16;;;;;;;0.50;0.50;;;20.90;99.90;;;;;;5096672;28;20141;-75
2023/07/12 09:03:42;;;;;;;0.52;0.50;;;20.70;99.90;;;;;;5096384;28;20046;-74
2023/07/12 09:06:15;;;;;;;1.53;1.03;;;20.60;99.90;;;;;;5095638;28;20131;-73
2023/07/12 09:08:47;;;;;;;0.30;0.30;;;20.50;99.90;;;;;;5096452;28;20062;-73
2023/07/12 09:11:19;;;;;;;0.50;0.50;;;20.60;99.90;;;;;;5096439;28;20032;-73
2023/07/12 09:13:46;;;;;;;0.30;0.30;;;20.80;99.90;;;;;;5096071;28;20086;-73
2023/07/12 09:16:32;;;;;;;0.40;0.40;;;21.00;99.90;;;;;;5094623;28;20072;-72
2023/07/12 09:19:01;;;;;;;0.45;0.30;;;21.10;99.90;;;;;;5096071;28;20039;-74
2023/07/12 09:21:35;;;;;;;0.40;0.40;;;21.00;99.90;;;;;;5096132;28;20040;-73
2023/07/12 09:24:09;;;;;;;0.30;0.30;;;20.90;99.90;;;;;;5096316;28;20055;-75
2023/07/12 09:26:35;;;;;;;0.80;0.63;;;20.90;99.90;;;;;;5096091;28;20086;-75
2023/07/12 09:29:07;;;;;;;0.30;0.30;;;21.10;99.90;;;;;;5094547;28;20047;-74
2023/07/12 09:31:35;;;;;;;0.40;0.40;;;21.20;99.90;;;;;;5096051;28;20032;-76
2023/07/12 09:34:05;;;;;;;0.30;0.30;;;21.30;99.90;;;;;;5095897;28;20032;-75
2023/07/12 09:36:38;;;;;;;0.38;0.38;;;21.50;99.90;;;;;;5095774;28;20369;-73
2023/07/12 09:39:05;;;;;;;0.40;0.40;;;21.60;99.90;;;;;;5095626;28;20413;-73
2023/07/12 09:41:30;;;;;;;;;;;21.60;99.90;;;;;;5096079;28;20098;-74
2023/07/12 09:43:58;;;;;;;0.30;0.30;;;21.60;99.90;;;;;;5094225;28;20395;-76
2023/07/12 09:46:38;;;;;;;0.30;0.30;;;21.60;99.90;;;;;;5095796;28;20036;-76
2023/07/12 09:49:16;;;;;;;0.43;0.43;;;21.50;99.90;;;;;;5095690;28;20089;-75
2023/07/12 09:52:05;;;;;;;0.30;0.30;;;21.50;99.90;;;;;;5095763;28;20032;-75
2023/07/12 09:54:37;;;;;;;0.38;0.22;;;21.30;99.90;;;;;;5095442;28;20128;-74
2023/07/12 09:57:27;;;;;;;0.22;0.22;;;21.20;99.90;;;;;;5095255;28;20040;-73
2023/07/12 10:00:29;;;;;;;3.40;1.30;;;21.10;99.90;;;;;;5095449;28;20076;-75
2023/07/12 10:03:20;;;;;;;0.40;0.40;;;21.10;99.90;;;;;;5095207;28;20055;-73
2023/07/12 10:05:56;;;;;;;0.28;0.28;;;21.10;99.90;;;;;;5095335;28;20032;-75
2023/07/12 10:08:25;;;;;;;0.30;0.30;;;20.90;99.90;;;;;;5095327;28;20051;-73
2023/07/12 10:11:06;;;;;;;0.55;0.55;;;20.80;99.90;;;;;;5095068;28;20044;-74
2023/07/12 10:13:51;;;;;;;0.40;0.40;;;20.60;99.90;;;;;;5095173;28;20055;-75
2023/07/12 10:16:26;;;;;;;0.60;0.60;;;20.50;99.90;;;;;;5094925;28;20040;-74
2023/07/12 10:18:52;;;;;;;0.30;0.30;;;20.60;99.90;;;;;;5095122;28;20036;-76
2023/07/12 10:21:20;;;;;;;;;;;20.60;99.90;;;;;;5094022;28;20384;-76
2023/07/12 10:23:54;;;;;;;0.30;0.30;;;20.90;99.90;;;;;;5094515;28;19920;-73
2023/07/12 10:26:20;;;;;;;0.30;0.30;;;21.10;99.90;;;;;;5095702;28;20040;-71
2023/07/12 10:29:00;;;;;;;0.30;0.30;;;21.30;99.90;;;;;;5094710;28;20262;-71
2023/07/12 10:31:37;;;;;;;0.30;0.30;;;21.50;99.90;;;;;;5094597;28;20036;-72
2023/07/12 10:34:46;;;;;;;0.30;0.30;;;21.40;99.90;;;;;;5094589;28;20136;-70
2023/07/12 10:37:15;;;;;;;0.20;0.20;;;21.30;99.90;;;;;;5031983;28;20464;-71
2023/07/12 10:39:41;;;;;;;0.40;0.40;;;21.20;99.90;;;;;;5031736;28;20057;-71
2023/07/12 10:42:18;;;;;;;0.35;0.35;;;21.10;99.90;;;;;;5062223;28;20059;-73
2023/07/12 10:44:51;;;;;;;0.60;0.53;;;21.10;99.90;;;;;;5094441;28;20065;-70
2023/07/12 10:47:20;;;;;;;0.30;0.30;;;21.00;99.90;;;;;;5090336;28;20343;-74
2023/07/12 10:49:58;;;;;;;0.38;0.38;;;21.00;99.90;;;;;;5074148;28;20040;-75
2023/07/12 10:53:02;;;;;;;0.60;0.60;;;20.90;99.90;;;;;;5087742;28;20395;-73
2023/07/12 10:55:39;;;;;;;0.50;0.50;;;20.80;99.90;;;;;;5094378;28;20040;-78
2023/07/12 10:58:24;;;;;;;0.50;0.50;;;20.80;99.90;;;;;;5094217;28;20082;-74
2023/07/12 11:00:58;;;;;;;0.20;0.20;;;21.00;99.90;;;;;;5094078;28;20046;-71
2023/07/12 11:03:41;;;;;;;0.20;0.20;;;21.20;99.90;;;;;;5093761;28;20083;-70
2023/07/12 11:06:23;;;;;;;0.30;0.30;;;21.40;99.90;;;;;;5093061;28;20043;-71
2023/07/12 11:09:02;;;;;;;0.55;0.38;;;21.50;99.90;;;;;;5093918;28;20070;-71
2023/07/12 11:11:33;;;;;;;0.30;0.30;;;21.70;99.90;;;;;;5094142;28;20043;-71
2023/07/12 11:14:14;;;;;;;0.20;0.20;;;21.80;99.90;;;;;;5093526;28;20122;-71
2023/07/12 11:17:11;;;;;;;0.28;0.28;;;21.80;99.90;;;;;;5093787;28;20396;-71
2023/07/12 11:19:39;;;;;;;0.30;0.30;;;21.80;99.90;;;;;;5093875;28;20387;-72
2023/07/12 11:22:23;;;;;;;0.30;0.30;;;21.80;99.90;;;;;;5093410;28;20079;-71
2023/07/12 11:24:52;;;;;;;0.20;0.20;;;21.90;99.90;;;;;;5093904;28;20043;-70
2023/07/12 11:27:40;;;;;;;0.20;0.20;;;22.10;99.90;;;;;;5093834;28;20143;-70
2023/07/12 11:30:26;;;;;;;0.28;0.28;;;22.20;99.90;;;;;;5093489;28;20119;-70
2023/07/12 11:33:01;;;;;;;0.30;0.30;;;22.20;99.90;;;;;;5093688;28;20436;-72
2023/07/12 11:35:58;;;;;;;1.85;0.30;;;22.20;99.90;;;;;;5093650;28;20372;-72
2023/07/12 11:38:30;;;;;;;0.47;0.47;;;22.40;99.90;;;;;;5092767;28;20047;-72
2023/07/12 11:41:02;;;;;;;0.20;0.20;;;22.60;99.90;;;;;;5075602;28;20040;-72
2023/07/12 11:43:34;;;;;;;0.32;0.32;;;22.80;99.90;;;;;;5073538;28;20052;-72
2023/07/12 11:46:02;;;;;;;2.08;0.93;;;22.90;99.90;;;;;;5073334;28;20121;-72
2023/07/12 11:48:31;;;;;;;0.28;0.28;;;23.00;99.90;;;;;;5073091;28;20037;-72
2023/07/12 11:51:02;;;;;;;0.35;0.35;;;23.20;99.90;;;;;;5073194;28;20044;-72
2023/07/12 11:53:28;;;;;;;0.47;0.47;;;23.30;99.90;;;;;;5073184;28;20044;-73
2023/07/12 11:55:55;;;;;;;0.30;0.30;;;23.30;99.90;;;;;;5073247;28;20066;-70
2023/07/12 11:58:24;;;;;;;0.30;0.30;;;23.50;99.90;;;;;;5073158;28;20090;-72
2023/07/12 12:00:51;;;;;;;0.30;0.30;;;23.60;99.90;;;;;;5072768;28;20425;-71
2023/07/12 12:03:17;;;;;;;0.32;0.32;;;23.70;99.90;;;;;;5072374;28;20048;-69
2023/07/12 12:05:44;;;;;;;0.63;0.63;;;23.80;99.90;;;;;;5074716;28;20040;-69
2023/07/12 12:08:24;;;;;;;0.20;0.20;;;24.00;99.90;;;;;;5081428;28;20044;-73
2023/07/12 12:10:50;;;;;;;0.30;0.30;;;24.20;99.90;;;;;;5072794;28;20036;-72
2023/07/12 12:13:19;;;;;;;0.30;0.30;;;24.30;99.90;;;;;;5073022;28;20045;-72
2023/07/12 12:15:49;;;;;;;0.82;0.82;;;24.50;99.90;;;;;;5073156;28;20388;-72
2023/07/12 12:18:22;;;;;;;1.55;0.30;;;24.60;99.90;;;;;;5072562;28;20131;-72
2023/07/12 12:20:57;;;;;;;0.20;0.20;;;24.80;99.90;;;;;;5072602;28;20036;-72
2023/07/12 12:23:27;;;;;;;0.30;0.30;;;24.80;99.90;;;;;;5073074;28;20115;-72
2023/07/12 12:25:57;;;;;;;0.30;0.30;;;24.70;99.90;;;;;;5072771;28;20441;-72
2023/07/12 12:28:28;;;;;;;0.40;0.40;;;24.40;99.90;;;;;;5072662;28;20506;-72
2023/07/12 12:31:01;;;;;;;0.30;0.30;;;24.40;99.90;;;;;;5072832;28;20068;-72
2023/07/12 12:33:28;;;;;;;0.40;0.40;;;24.40;99.90;;;;;;5072965;28;20036;-73
2023/07/12 12:35:59;;;;;;;0.30;0.30;;;24.30;99.90;;;;;;5071509;28;20422;-74
2023/07/12 12:38:29;;;;;;;0.40;0.40;;;24.30;99.90;;;;;;5072535;28;20476;-75
2023/07/12 12:41:01;;;;;;;0.30;0.30;;;24.40;99.90;;;;;;5072369;28;20072;-75
2023/07/12 12:43:27;;;;;;;0.30;0.30;;;24.40;99.90;;;;;;5072843;28;20075;-76
2023/07/12 12:45:55;;;;;;;0.20;0.20;;;24.50;99.90;;;;;;5072275;28;20041;-74
2023/07/12 12:48:21;;;;;;;0.20;0.20;;;24.60;99.90;;;;;;5071638;28;20370;-75
2023/07/12 12:50:48;;;;;;;0.30;0.30;;;24.80;99.90;;;;;;5075717;28;20036;-73
2023/07/12 12:53:14;;;;;;;0.30;0.30;;;24.90;99.90;;;;;;5076228;28;20044;-72
2023/07/12 12:55:48;;;;;;;0.22;0.22;;;24.80;99.90;;;;;;5075996;28;20124;-73
2023/07/12 12:58:14;;;;;;;0.20;0.20;;;24.60;99.90;;;;;;5076008;28;20041;-74
2023/07/12 13:00:41;;;;;;;0.20;0.20;;;24.70;99.90;;;;;;5076061;28;20051;-73